Terminal Aerodrome Forecast
Issued by NWS

Home | Current Version | Previous Version | Text Only | Print | Product List | Glossary Off
Versions: 1 2 3 4 5 6 7 8 9 10 11 12 13

000
FTUS43 KGRB 301028 AAA
TAFCWA
TAF AMD
KCWA 301028Z 3010/3106 01009KT P6SM SCT007 OVC035
      TEMPO 3010/3013 6SM -RADZ BKN007
     FM301400 01010G16KT P6SM BKN022
     FM301800 36010G17KT P6SM SCT025 BKN100
     FM302200 02008KT P6SM SKC=

USA.gov is the U.S. government's official web portal to all federal, state and local government web resources and services.